sensor_id;sensor_type;location;lat;lon;timestamp;pressure;altitude;pressure_sealevel;temperature;humidity
21111;BME280;10713;51.912;4.494;2023-01-10T00:00:51;101171.97;;;9.39;100.00
21111;BME280;10713;51.912;4.494;2023-01-10T00:03:16;101169.25;;;9.42;100.00
21111;BME280;10713;51.912;4.494;2023-01-10T00:05:42;101168.41;;;9.40;100.00
21111;BME280;10713;51.912;4.494;2023-01-10T00:08:13;101175.34;;;9.44;100.00
21111;BME280;10713;51.912;4.494;2023-01-10T00:10:39;101174.38;;;9.47;100.00
21111;BME280;10713;51.912;4.494;2023-01-10T00:13:04;101184.00;;;9.48;100.00
21111;BME280;10713;51.912;4.494;2023-01-10T00:15:51;101181.31;;;9.50;100.00
21111;BME280;10713;51.912;4.494;2023-01-10T00:18:17;101180.56;;;9.46;100.00
21111;BME280;10713;51.912;4.494;2023-01-10T00:20:43;101181.41;;;9.46;100.00
21111;BME280;10713;51.912;4.494;2023-01-10T00:23:11;101200.59;;;9.52;100.00
21111;BME280;10713;51.912;4.494;2023-01-10T00:25:37;101186.47;;;9.54;100.00
21111;BME280;10713;51.912;4.494;2023-01-10T00:28:03;101202.19;;;9.57;100.00
21111;BME280;10713;51.912;4.494;2023-01-10T00:30:38;101195.13;;;9.58;100.00
21111;BME280;10713;51.912;4.494;2023-01-10T00:33:04;101203.19;;;9.53;100.00
21111;BME280;10713;51.912;4.494;2023-01-10T00:35:30;101208.56;;;9.50;100.00
21111;BME280;10713;51.912;4.494;2023-01-10T00:37:56;101207.59;;;9.53;100.00
21111;BME280;10713;51.912;4.494;2023-01-10T00:40:31;101222.50;;;9.54;100.00
21111;BME280;10713;51.912;4.494;2023-01-10T00:42:57;101217.19;;;9.55;100.00
21111;BME280;10713;51.912;4.494;2023-01-10T00:45:43;101212.94;;;9.50;100.00
21111;BME280;10713;51.912;4.494;2023-01-10T00:48:09;101225.88;;;9.59;100.00
21111;BME280;10713;51.912;4.494;2023-01-10T00:50:34;101219.69;;;9.60;100.00
21111;BME280;10713;51.912;4.494;2023-01-10T00:53:00;101217.16;;;9.57;100.00
21111;BME280;10713;51.912;4.494;2023-01-10T00:55:25;101227.72;;;9.55;100.00
21111;BME280;10713;51.912;4.494;2023-01-10T00:57:51;101221.56;;;9.56;100.00
21111;BME280;10713;51.912;4.494;2023-01-10T01:00:16;101225.13;;;9.54;100.00
21111;BME280;10713;51.912;4.494;2023-01-10T01:02:41;101236.84;;;9.43;100.00
21111;BME280;10713;51.912;4.494;2023-01-10T01:05:07;101231.53;;;9.45;100.00
21111;BME280;10713;51.912;4.494;2023-01-10T01:07:32;101246.50;;;9.44;100.00
21111;BME280;10713;51.912;4.494;2023-01-10T01:09:58;101243.81;;;9.46;100.00
21111;BME280;10713;51.912;4.494;2023-01-10T01:12:42;101243.81;;;9.46;100.00
21111;BME280;10713;51.912;4.494;2023-01-10T01:15:07;101250.66;;;9.52;100.00
21111;BME280;10713;51.912;4.494;2023-01-10T01:17:33;101245.47;;;9.48;100.00
21111;BME280;10713;51.912;4.494;2023-01-10T01:19:58;101264.69;;;9.52;100.00
21111;BME280;10713;51.912;4.494;2023-01-10T01:22:23;101262.16;;;9.49;100.00
21111;BME280;10713;51.912;4.494;2023-01-10T01:24:49;101260.44;;;9.48;100.00
21111;BME280;10713;51.912;4.494;2023-01-10T01:27:14;101269.03;;;9.55;100.00
21111;BME280;10713;51.912;4.494;2023-01-10T01:29:39;101263.84;;;9.52;100.00
21111;BME280;10713;51.912;4.494;2023-01-10T01:32:05;101266.53;;;9.50;100.00
21111;BME280;10713;51.912;4.494;2023-01-10T01:34:30;101274.28;;;9.55;100.00
21111;BME280;10713;51.912;4.494;2023-01-10T01:36:55;101278.75;;;9.53;100.00
21111;BME280;10713;51.912;4.494;2023-01-10T01:39:22;101267.41;;;9.51;100.00
21111;BME280;10713;51.912;4.494;2023-01-10T01:41:48;101278.72;;;9.54;100.00
21111;BME280;10713;51.912;4.494;2023-01-10T01:44:23;101274.38;;;9.52;100.00
21111;BME280;10713;51.912;4.494;2023-01-10T01:47:00;101283.03;;;9.57;100.00
21111;BME280;10713;51.912;4.494;2023-01-10T01:49:27;101288.34;;;9.55;100.00
21111;BME280;10713;51.912;4.494;2023-01-10T01:51:58;101287.47;;;9.55;100.00
21111;BME280;10713;51.912;4.494;2023-01-10T01:54:27;101303.94;;;9.63;100.00
21111;BME280;10713;51.912;4.494;2023-01-10T01:56:59;101299.50;;;9.65;100.00
21111;BME280;10713;51.912;4.494;2023-01-10T01:59:29;101303.94;;;9.63;100.00
21111;BME280;10713;51.912;4.494;2023-01-10T02:02:01;101312.53;;;9.69;100.00
21111;BME280;10713;51.912;4.494;2023-01-10T02:04:34;101309.03;;;9.69;100.00
21111;BME280;10713;51.912;4.494;2023-01-10T02:07:01;101311.81;;;9.64;100.00
21111;BME280;10713;51.912;4.494;2023-01-10T02:09:32;101314.50;;;9.61;100.00
21111;BME280;10713;51.912;4.494;2023-01-10T02:12:00;101308.47;;;9.58;100.00
21111;BME280;10713;51.912;4.494;2023-01-10T02:14:27;101311.56;;;9.74;100.00
21111;BME280;10713;51.912;4.494;2023-01-10T02:16:53;101312.34;;;9.77;100.00
21111;BME280;10713;51.912;4.494;2023-01-10T02:33:26;101319.00;;;9.58;100.00
21111;BME280;10713;51.912;4.494;2023-01-10T02:41:37;101335.47;;;9.67;100.00
21111;BME280;10713;51.912;4.494;2023-01-10T02:46:50;101345.06;;;9.70;100.00
21111;BME280;10713;51.912;4.494;2023-01-10T02:49:15;101341.50;;;9.71;100.00
21111;BME280;10713;51.912;4.494;2023-01-10T02:51:41;101344.97;;;9.73;100.00
21111;BME280;10713;51.912;4.494;2023-01-10T02:54:14;101336.31;;;9.68;100.00
21111;BME280;10713;51.912;4.494;2023-01-10T03:02:13;101335.50;;;9.66;100.00
21111;BME280;10713;51.912;4.494;2023-01-10T03:05:03;101330.41;;;9.60;100.00
21111;BME280;10713;51.912;4.494;2023-01-10T03:07:35;101347.91;;;9.62;100.00
21111;BME280;10713;51.912;4.494;2023-01-10T03:10:27;101346.72;;;9.73;100.00
21111;BME280;10713;51.912;4.494;2023-01-10T03:13:01;101342.44;;;9.68;100.00
21111;BME280;10713;51.912;4.494;2023-01-10T03:15:31;101346.03;;;9.66;100.00
21111;BME280;10713;51.912;4.494;2023-01-10T03:18:01;101343.47;;;9.64;100.00
21111;BME280;10713;51.912;4.494;2023-01-10T03:20:31;101354.78;;;9.68;100.00
21111;BME280;10713;51.912;4.494;2023-01-10T03:23:01;101361.81;;;9.67;100.00
21111;BME280;10713;51.912;4.494;2023-01-10T03:25:31;101364.28;;;9.74;100.00
21111;BME280;10713;51.912;4.494;2023-01-10T03:28:09;101362.44;;;9.76;100.00
21111;BME280;10713;51.912;4.494;2023-01-10T03:30:44;101359.91;;;9.73;100.00
21111;BME280;10713;51.912;4.494;2023-01-10T03:33:13;101365.31;;;9.68;100.00
21111;BME280;10713;51.912;4.494;2023-01-10T03:38:14;101386.75;;;9.56;100.00
21111;BME280;10713;51.912;4.494;2023-01-10T03:40:54;101384.03;;;9.59;100.00
21111;BME280;10713;51.912;4.494;2023-01-10T03:43:39;101385.00;;;9.55;100.00
21111;BME280;10713;51.912;4.494;2023-01-10T03:46:47;101391.94;;;9.59;100.00
21111;BME280;10713;51.912;4.494;2023-01-10T03:49:14;101396.56;;;9.49;100.00
21111;BME280;10713;51.912;4.494;2023-01-10T03:51:41;101399.16;;;9.51;100.00
21111;BME280;10713;51.912;4.494;2023-01-10T03:54:07;101396.66;;;9.46;100.00
21111;BME280;10713;51.912;4.494;2023-01-10T03:56:53;101402.59;;;9.53;100.00
21111;BME280;10713;51.912;4.494;2023-01-10T03:59:20;101408.69;;;9.56;100.00
21111;BME280;10713;51.912;4.494;2023-01-10T04:01:46;101406.94;;;9.55;100.00
21111;BME280;10713;51.912;4.494;2023-01-10T04:04:12;101402.59;;;9.54;100.00
21111;BME280;10713;51.912;4.494;2023-01-10T04:06:37;101405.13;;;9.57;100.00
21111;BME280;10713;51.912;4.494;2023-01-10T04:09:03;101399.69;;;9.63;100.00
21111;BME280;10713;51.912;4.494;2023-01-10T04:11:28;101402.31;;;9.65;100.00
21111;BME280;10713;51.912;4.494;2023-01-10T04:13:53;101398.06;;;9.59;100.00
21111;BME280;10713;51.912;4.494;2023-01-10T04:16:19;101398.16;;;9.56;100.00
21111;BME280;10713;51.912;4.494;2023-01-10T04:18:45;101404.63;;;9.43;100.00
21111;BME280;10713;51.912;4.494;2023-01-10T04:21:10;101410.06;;;9.35;100.00
21111;BME280;10713;51.912;4.494;2023-01-10T04:23:35;101427.72;;;9.33;100.00
21111;BME280;10713;51.912;4.494;2023-01-10T04:26:01;101440.22;;;9.23;100.00
21111;BME280;10713;51.912;4.494;2023-01-10T04:28:27;101430.72;;;9.18;100.00
21111;BME280;10713;51.912;4.494;2023-01-10T04:30:52;101424.63;;;9.16;100.00
21111;BME280;10713;51.912;4.494;2023-01-10T04:33:17;101419.53;;;9.08;100.00
21111;BME280;10713;51.912;4.494;2023-01-10T04:35:50;101415.34;;;8.99;100.00
21111;BME280;10713;51.912;4.494;2023-01-10T04:38:15;101421.72;;;8.91;100.00
21111;BME280;10713;51.912;4.494;2023-01-10T04:40:41;101418.22;;;8.90;100.00
21111;BME280;10713;51.912;4.494;2023-01-10T04:43:07;101429.78;;;8.83;100.00
21111;BME280;10713;51.912;4.494;2023-01-10T04:45:33;101439.59;;;8.75;100.00
21111;BME280;10713;51.912;4.494;2023-01-10T04:47:58;101451.09;;;8.71;100.00
21111;BME280;10713;51.912;4.494;2023-01-10T04:50:25;101457.16;;;8.74;100.00
21111;BME280;10713;51.912;4.494;2023-01-10T04:52:50;101463.41;;;8.70;100.00
21111;BME280;10713;51.912;4.494;2023-01-10T04:55:16;101474.81;;;8.69;100.00
21111;BME280;10713;51.912;4.494;2023-01-10T04:57:41;101475.69;;;8.70;100.00
21111;BME280;10713;51.912;4.494;2023-01-10T05:00:08;101474.03;;;8.66;100.00
21111;BME280;10713;51.912;4.494;2023-01-10T05:02:33;101473.25;;;8.61;100.00
21111;BME280;10713;51.912;4.494;2023-01-10T05:04:59;101475.78;;;8.65;100.00
21111;BME280;10713;51.912;4.494;2023-01-10T05:07:24;101473.16;;;8.65;100.00
21111;BME280;10713;51.912;4.494;2023-01-10T05:09:49;101481.84;;;8.69;100.00
21111;BME280;10713;51.912;4.494;2023-01-10T05:12:15;101484.41;;;8.73;100.00
21111;BME280;10713;51.912;4.494;2023-01-10T05:14:40;101477.38;;;8.72;100.00
21111;BME280;10713;51.912;4.494;2023-01-10T05:17:06;101475.44;;;8.80;100.00
21111;BME280;10713;51.912;4.494;2023-01-10T05:19:31;101489.53;;;8.79;100.00
21111;BME280;10713;51.912;4.494;2023-01-10T05:21:56;101485.19;;;8.77;100.00
21111;BME280;10713;51.912;4.494;2023-01-10T05:24:22;101494.75;;;8.81;100.00
21111;BME280;10713;51.912;4.494;2023-01-10T05:26:47;101504.31;;;8.85;100.00
21111;BME280;10713;51.912;4.494;2023-01-10T05:29:12;101507.81;;;8.87;100.00
21111;BME280;10713;51.912;4.494;2023-01-10T05:31:41;101510.38;;;8.90;100.00
21111;BME280;10713;51.912;4.494;2023-01-10T05:34:10;101509.31;;;8.99;100.00
21111;BME280;10713;51.912;4.494;2023-01-10T05:36:36;101507.47;;;9.02;100.00
21111;BME280;10713;51.912;4.494;2023-01-10T05:39:02;101518.69;;;9.11;100.00
21111;BME280;10713;51.912;4.494;2023-01-10T05:41:27;101521.91;;;9.23;100.00
21111;BME280;10713;51.912;4.494;2023-01-10T05:43:53;101518.41;;;9.23;100.00
21111;BME280;10713;51.912;4.494;2023-01-10T05:46:18;101516.75;;;9.19;100.00
21111;BME280;10713;51.912;4.494;2023-01-10T05:48:43;101523.66;;;9.23;100.00
21111;BME280;10713;51.912;4.494;2023-01-10T05:51:09;101522.56;;;9.33;100.00
21111;BME280;10713;51.912;4.494;2023-01-10T05:53:34;101518.03;;;9.38;100.00
21111;BME280;10713;51.912;4.494;2023-01-10T05:56:01;101517.16;;;9.39;100.00
21111;BME280;10713;51.912;4.494;2023-01-10T05:58:28;101533.03;;;9.36;100.00
21111;BME280;10713;51.912;4.494;2023-01-10T06:00:54;101533.97;;;9.34;100.00
21111;BME280;10713;51.912;4.494;2023-01-10T06:03:20;101530.41;;;9.36;100.00
21111;BME280;10713;51.912;4.494;2023-01-10T06:05:45;101548.66;;;9.44;100.00
21111;BME280;10713;51.912;4.494;2023-01-10T06:08:11;101552.97;;;9.46;100.00
21111;BME280;10713;51.912;4.494;2023-01-10T06:10:36;101547.63;;;9.51;100.00
21111;BME280;10713;51.912;4.494;2023-01-10T06:13:02;101546.69;;;9.52;100.00
21111;BME280;10713;51.912;4.494;2023-01-10T06:15:29;101538.00;;;9.50;100.00
21111;BME280;10713;51.912;4.494;2023-01-10T06:17:54;101532.75;;;9.48;100.00
21111;BME280;10713;51.912;4.494;2023-01-10T06:20:20;101539.66;;;9.53;100.00
21111;BME280;10713;51.912;4.494;2023-01-10T06:22:45;101548.31;;;9.59;100.00
21111;BME280;10713;51.912;4.494;2023-01-10T06:25:13;101541.34;;;9.57;100.00
21111;BME280;10713;51.912;4.494;2023-01-10T06:27:39;101542.34;;;9.51;100.00
21111;BME280;10713;51.912;4.494;2023-01-10T06:30:05;101556.38;;;9.52;100.00
21111;BME280;10713;51.912;4.494;2023-01-10T06:32:31;101554.53;;;9.55;100.00
21111;BME280;10713;51.912;4.494;2023-01-10T06:34:57;101553.66;;;9.56;100.00
21111;BME280;10713;51.912;4.494;2023-01-10T06:37:22;101569.50;;;9.55;100.00
21111;BME280;10713;51.912;4.494;2023-01-10T06:39:47;101576.50;;;9.56;100.00
21111;BME280;10713;51.912;4.494;2023-01-10T06:42:13;101573.72;;;9.62;100.00
21111;BME280;10713;51.912;4.494;2023-01-10T06:44:39;101569.28;;;9.64;100.00
21111;BME280;10713;51.912;4.494;2023-01-10T06:47:04;101585.97;;;9.64;100.00
21111;BME280;10713;51.912;4.494;2023-01-10T06:49:29;101585.22;;;9.58;100.00
21111;BME280;10713;51.912;4.494;2023-01-10T06:51:55;101592.34;;;9.56;100.00
21111;BME280;10713;51.912;4.494;2023-01-10T06:54:20;101598.47;;;9.56;100.00
21111;BME280;10713;51.912;4.494;2023-01-10T06:56:49;101592.44;;;9.51;100.00
21111;BME280;10713;51.912;4.494;2023-01-10T06:59:14;101600.34;;;9.51;100.00
21111;BME280;10713;51.912;4.494;2023-01-10T07:01:40;101606.50;;;9.50;100.00
21111;BME280;10713;51.912;4.494;2023-01-10T07:04:05;101601.56;;;9.35;100.00
21111;BME280;10713;51.912;4.494;2023-01-10T07:06:30;101620.84;;;9.37;100.00
21111;BME280;10713;51.912;4.494;2023-01-10T07:08:56;101622.69;;;9.33;100.00
21111;BME280;10713;51.912;4.494;2023-01-10T07:11:22;101629.63;;;9.37;100.00
21111;BME280;10713;51.912;4.494;2023-01-10T07:13:47;101629.75;;;9.31;100.00
21111;BME280;10713;51.912;4.494;2023-01-10T07:16:14;101639.50;;;9.28;100.00
21111;BME280;10713;51.912;4.494;2023-01-10T07:18:41;101635.03;;;9.31;100.00
21111;BME280;10713;51.912;4.494;2023-01-10T07:21:08;101643.06;;;9.25;100.00
21111;BME280;10713;51.912;4.494;2023-01-10T07:23:34;101638.06;;;9.11;100.00
21111;BME280;10713;51.912;4.494;2023-01-10T07:26:05;101639.13;;;9.02;100.00
21111;BME280;10713;51.912;4.494;2023-01-10T07:28:31;101633.47;;;8.77;100.00
21111;BME280;10713;51.912;4.494;2023-01-10T07:30:59;101650.53;;;8.56;100.00
21111;BME280;10713;51.912;4.494;2023-01-10T07:33:25;101653.97;;;8.60;100.00
21111;BME280;10713;51.912;4.494;2023-01-10T07:35:50;101656.38;;;8.74;100.00
21111;BME280;10713;51.912;4.494;2023-01-10T07:38:15;101662.97;;;8.96;100.00
21111;BME280;10713;51.912;4.494;2023-01-10T07:40:41;101653.25;;;8.98;100.00
21111;BME280;10713;51.912;4.494;2023-01-10T07:43:06;101656.78;;;8.97;100.00
21111;BME280;10713;51.912;4.494;2023-01-10T07:45:31;101653.22;;;9.01;100.00
21111;BME280;10713;51.912;4.494;2023-01-10T07:48:02;101655.84;;;9.00;100.00
21111;BME280;10713;51.912;4.494;2023-01-10T07:50:30;101647.69;;;8.69;100.00
21111;BME280;10713;51.912;4.494;2023-01-10T07:52:58;101660.78;;;8.72;100.00
21111;BME280;10713;51.912;4.494;2023-01-10T07:55:23;101650.50;;;8.58;100.00
21111;BME280;10713;51.912;4.494;2023-01-10T07:57:49;101657.50;;;8.59;100.00
21111;BME280;10713;51.912;4.494;2023-01-10T08:00:16;101657.31;;;8.70;100.00
21111;BME280;10713;51.912;4.494;2023-01-10T08:02:41;101651.22;;;8.68;100.00
21111;BME280;10713;51.912;4.494;2023-01-10T08:05:07;101661.56;;;8.78;100.00
21111;BME280;10713;51.912;4.494;2023-01-10T08:07:33;101653.75;;;8.72;100.00
21111;BME280;10713;51.912;4.494;2023-01-10T08:09:58;101660.72;;;8.75;100.00
21111;BME280;10713;51.912;4.494;2023-01-10T08:12:23;101667.03;;;8.66;100.00
21111;BME280;10713;51.912;4.494;2023-01-10T08:14:50;101657.28;;;8.73;100.00
21111;BME280;10713;51.912;4.494;2023-01-10T08:17:16;101660.28;;;8.98;100.00
21111;BME280;10713;51.912;4.494;2023-01-10T08:19:41;101657.91;;;9.29;100.00
21111;BME280;10713;51.912;4.494;2023-01-10T08:22:06;101644.50;;;9.40;100.00
21111;BME280;10713;51.912;4.494;2023-01-10T08:24:32;101645.16;;;9.50;100.00
21111;BME280;10713;51.912;4.494;2023-01-10T08:26:57;101653.63;;;9.64;100.00
21111;BME280;10713;51.912;4.494;2023-01-10T08:29:23;101634.38;;;9.62;100.00
21111;BME280;10713;51.912;4.494;2023-01-10T08:31:48;101646.63;;;9.63;100.00
21111;BME280;10713;51.912;4.494;2023-01-10T08:34:14;101639.97;;;9.46;100.00
21111;BME280;10713;51.912;4.494;2023-01-10T08:36:39;101641.16;;;9.32;100.00
21111;BME280;10713;51.912;4.494;2023-01-10T08:39:05;101642.63;;;9.05;100.00
21111;BME280;10713;51.912;4.494;2023-01-10T08:41:30;101646.31;;;8.94;100.00
21111;BME280;10713;51.912;4.494;2023-01-10T08:43:55;101648.34;;;8.82;100.00
21111;BME280;10713;51.912;4.494;2023-01-10T08:46:21;101647.53;;;8.76;100.00
21111;BME280;10713;51.912;4.494;2023-01-10T08:48:46;101636.94;;;8.79;100.00
21111;BME280;10713;51.912;4.494;2023-01-10T08:51:14;101636.34;;;8.64;100.00
21111;BME280;10713;51.912;4.494;2023-01-10T08:53:40;101639.84;;;8.66;100.00
21111;BME280;10713;51.912;4.494;2023-01-10T08:56:06;101635.25;;;8.77;100.00
21111;BME280;10713;51.912;4.494;2023-01-10T08:58:32;101628.28;;;8.74;100.00
21111;BME280;10713;51.912;4.494;2023-01-10T09:00:57;101632.81;;;8.66;100.00
21111;BME280;10713;51.912;4.494;2023-01-10T09:03:22;101641.72;;;8.59;100.00
21111;BME280;10713;51.912;4.494;2023-01-10T09:05:48;101636.59;;;8.51;100.00
21111;BME280;10713;51.912;4.494;2023-01-10T09:08:13;101638.56;;;8.37;100.00
21111;BME280;10713;51.912;4.494;2023-01-10T09:10:38;101634.16;;;8.41;100.00
21111;BME280;10713;51.912;4.494;2023-01-10T09:13:04;101637.44;;;8.53;100.00
21111;BME280;10713;51.912;4.494;2023-01-10T09:15:34;101631.28;;;8.54;100.00
21111;BME280;10713;51.912;4.494;2023-01-10T09:18:02;101622.69;;;8.45;100.00
21111;BME280;10713;51.912;4.494;2023-01-10T09:20:29;101625.22;;;8.49;100.00
21111;BME280;10713;51.912;4.494;2023-01-10T09:22:55;101620.00;;;8.48;100.00
21111;BME280;10713;51.912;4.494;2023-01-10T09:25:21;101622.59;;;8.49;100.00
21111;BME280;10713;51.912;4.494;2023-01-10T09:27:54;101618.44;;;8.36;100.00
21111;BME280;10713;51.912;4.494;2023-01-10T09:30:20;101625.38;;;8.42;100.00
21111;BME280;10713;51.912;4.494;2023-01-10T09:32:49;101628.88;;;8.42;100.00
21111;BME280;10713;51.912;4.494;2023-01-10T09:35:15;101633.31;;;8.39;100.00
21111;BME280;10713;51.912;4.494;2023-01-10T09:37:40;101625.94;;;8.57;100.00
21111;BME280;10713;51.912;4.494;2023-01-10T09:40:06;101629.34;;;8.64;100.00
21111;BME280;10713;51.912;4.494;2023-01-10T09:48:02;101636.72;;;8.45;100.00
21111;BME280;10713;51.912;4.494;2023-01-10T09:50:42;101621.84;;;8.41;100.00
21111;BME280;10713;51.912;4.494;2023-01-10T09:53:15;101622.69;;;8.43;100.00
21111;BME280;10713;51.912;4.494;2023-01-10T09:55:45;101607.66;;;8.51;100.00
21111;BME280;10713;51.912;4.494;2023-01-10T09:58:16;101619.81;;;8.57;100.00
21111;BME280;10713;51.912;4.494;2023-01-10T10:00:59;101614.19;;;8.75;100.00
21111;BME280;10713;51.912;4.494;2023-01-10T10:06:02;101602.72;;;8.79;100.00
21111;BME280;10713;51.912;4.494;2023-01-10T10:08:28;101606.31;;;8.75;100.00
21111;BME280;10713;51.912;4.494;2023-01-10T10:11:47;101608.91;;;8.78;100.00
21111;BME280;10713;51.912;4.494;2023-01-10T10:27:09;101597.19;;;8.93;100.00
21111;BME280;10713;51.912;4.494;2023-01-10T10:32:23;101587.59;;;8.89;100.00
21111;BME280;10713;51.912;4.494;2023-01-10T10:34:59;101588.31;;;8.99;100.00
21111;BME280;10713;51.912;4.494;2023-01-10T10:37:40;101584.88;;;8.94;100.00
21111;BME280;10713;51.912;4.494;2023-01-10T10:42:41;101578.84;;;8.89;100.00
21111;BME280;10713;51.912;4.494;2023-01-10T10:47:50;101560.03;;;8.65;100.00
21111;BME280;10713;51.912;4.494;2023-01-10T10:50:23;101549.56;;;8.62;100.00
21111;BME280;10713;51.912;4.494;2023-01-10T10:52:52;101557.38;;;8.65;100.00
21111;BME280;10713;51.912;4.494;2023-01-10T10:55:21;101546.00;;;8.63;100.00
21111;BME280;10713;51.912;4.494;2023-01-10T10:57:50;101540.00;;;8.56;100.00
21111;BME280;10713;51.912;4.494;2023-01-10T11:00:19;101529.56;;;8.53;100.00
21111;BME280;10713;51.912;4.494;2023-01-10T11:02:52;101533.25;;;8.43;100.00
21111;BME280;10713;51.912;4.494;2023-01-10T11:05:24;101524.72;;;8.29;100.00
21111;BME280;10713;51.912;4.494;2023-01-10T11:07:56;101533.34;;;8.37;100.00
21111;BME280;10713;51.912;4.494;2023-01-10T11:10:23;101534.16;;;8.42;100.00
21111;BME280;10713;51.912;4.494;2023-01-10T11:15:49;101519.56;;;8.69;100.00
21111;BME280;10713;51.912;4.494;2023-01-10T11:18:17;101517.03;;;8.65;100.00
21111;BME280;10713;51.912;4.494;2023-01-10T11:23:22;101502.00;;;8.70;100.00
21111;BME280;10713;51.912;4.494;2023-01-10T11:25:49;101503.69;;;8.74;100.00
21111;BME280;10713;51.912;4.494;2023-01-10T11:28:14;101496.69;;;8.73;100.00
21111;BME280;10713;51.912;4.494;2023-01-10T11:30:46;101500.00;;;8.83;100.00
21111;BME280;10713;51.912;4.494;2023-01-10T11:33:21;101505.75;;;8.58;100.00
21111;BME280;10713;51.912;4.494;2023-01-10T11:36:05;101499.94;;;8.42;100.00
21111;BME280;10713;51.912;4.494;2023-01-10T11:38:32;101488.69;;;8.32;100.00
21111;BME280;10713;51.912;4.494;2023-01-10T11:41:20;101476.50;;;8.28;100.00
21111;BME280;10713;51.912;4.494;2023-01-10T11:43:47;101478.41;;;8.22;100.00
21111;BME280;10713;51.912;4.494;2023-01-10T11:46:22;101472.22;;;8.23;100.00
21111;BME280;10713;51.912;4.494;2023-01-10T11:49:02;101469.13;;;8.02;100.00
21111;BME280;10713;51.912;4.494;2023-01-10T11:51:33;101461.09;;;8.10;100.00
21111;BME280;10713;51.912;4.494;2023-01-10T11:54:03;101465.38;;;8.16;100.00
21111;BME280;10713;51.912;4.494;2023-01-10T11:56:34;101457.28;;;8.25;100.00
21111;BME280;10713;51.912;4.494;2023-01-10T11:59:11;101448.81;;;8.09;100.00
21111;BME280;10713;51.912;4.494;2023-01-10T12:01:39;101455.84;;;8.10;100.00
21111;BME280;10713;51.912;4.494;2023-01-10T12:04:05;101447.03;;;8.11;100.00
21111;BME280;10713;51.912;4.494;2023-01-10T12:06:31;101448.59;;;8.21;100.00
21111;BME280;10713;51.912;4.494;2023-01-10T12:08:57;101443.22;;;8.27;100.00
21111;BME280;10713;51.912;4.494;2023-01-10T12:11:24;101434.81;;;8.10;100.00
21111;BME280;10713;51.912;4.494;2023-01-10T12:13:54;101429.63;;;8.04;100.00
21111;BME280;10713;51.912;4.494;2023-01-10T12:16:25;101431.50;;;7.99;100.00
21111;BME280;10713;51.912;4.494;2023-01-10T12:18:53;101437.56;;;8.02;100.00
21111;BME280;10713;51.912;4.494;2023-01-10T12:21:38;101416.50;;;8.04;100.00
21111;BME280;10713;51.912;4.494;2023-01-10T12:24:21;101433.81;;;8.16;100.00
21111;BME280;10713;51.912;4.494;2023-01-10T12:26:49;101428.69;;;8.08;100.00
21111;BME280;10713;51.912;4.494;2023-01-10T12:29:21;101417.28;;;8.09;100.00
21111;BME280;10713;51.912;4.494;2023-01-10T12:31:48;101408.31;;;8.18;100.00
21111;BME280;10713;51.912;4.494;2023-01-10T12:34:41;101403.91;;;8.21;100.00
21111;BME280;10713;51.912;4.494;2023-01-10T12:37:17;101409.19;;;8.20;100.00
21111;BME280;10713;51.912;4.494;2023-01-10T12:39:50;101393.13;;;8.32;100.00
21111;BME280;10713;51.912;4.494;2023-01-10T12:45:49;101385.97;;;8.40;100.00
21111;BME280;10713;51.912;4.494;2023-01-10T12:48:26;101388.53;;;8.45;100.00
21111;BME280;10713;51.912;4.494;2023-01-10T12:51:00;101387.53;;;8.50;100.00
21111;BME280;10713;51.912;4.494;2023-01-10T12:53:43;101387.66;;;8.44;100.00
21111;BME280;10713;51.912;4.494;2023-01-10T12:56:12;101378.84;;;8.45;100.00
21111;BME280;10713;51.912;4.494;2023-01-10T12:58:44;101372.81;;;8.42;100.00
21111;BME280;10713;51.912;4.494;2023-01-10T13:01:16;101370.97;;;8.45;100.00
21111;BME280;10713;51.912;4.494;2023-01-10T13:03:44;101363.16;;;8.42;100.00
21111;BME280;10713;51.912;4.494;2023-01-10T13:06:28;101355.31;;;8.38;100.00
21111;BME280;10713;51.912;4.494;2023-01-10T13:08:54;101344.84;;;8.36;100.00
21111;BME280;10713;51.912;4.494;2023-01-10T13:11:24;101335.06;;;8.43;100.00
21111;BME280;10713;51.912;4.494;2023-01-10T13:13:57;101336.84;;;8.42;100.00
21111;BME280;10713;51.912;4.494;2023-01-10T13:16:47;101331.44;;;8.48;100.00
21111;BME280;10713;51.912;4.494;2023-01-10T13:21:44;101322.94;;;8.35;100.00
21111;BME280;10713;51.912;4.494;2023-01-10T13:24:19;101314.16;;;8.35;100.00
21111;BME280;10713;51.912;4.494;2023-01-10T13:26:55;101313.41;;;8.30;100.00
21111;BME280;10713;51.912;4.494;2023-01-10T13:29:24;101295.00;;;8.30;100.00
21111;BME280;10713;51.912;4.494;2023-01-10T13:31:52;101289.69;;;8.31;100.00
21111;BME280;10713;51.912;4.494;2023-01-10T13:34:24;101289.72;;;8.30;100.00
21111;BME280;10713;51.912;4.494;2023-01-10T13:36:59;101286.41;;;8.22;100.00
21111;BME280;10713;51.912;4.494;2023-01-10T13:39:50;101278.38;;;8.28;100.00
21111;BME280;10713;51.912;4.494;2023-01-10T13:42:34;101279.25;;;8.27;100.00
21111;BME280;10713;51.912;4.494;2023-01-10T13:45:29;101276.34;;;8.02;100.00
21111;BME280;10713;51.912;4.494;2023-01-10T13:48:00;101264.25;;;7.93;100.00
21111;BME280;10713;51.912;4.494;2023-01-10T14:08:48;101208.09;;;7.55;100.00
21111;BME280;10713;51.912;4.494;2023-01-10T14:11:14;101190.31;;;7.68;100.00
21111;BME280;10713;51.912;4.494;2023-01-10T14:13:46;101200.19;;;9.05;100.00
21111;BME280;10713;51.912;4.494;2023-01-10T14:18:59;101175.28;;;9.16;100.00
21111;BME280;10713;51.912;4.494;2023-01-10T14:21:27;101172.25;;;9.30;100.00
21111;BME280;10713;51.912;4.494;2023-01-10T14:23:55;101164.72;;;10.04;100.00
21111;BME280;10713;51.912;4.494;2023-01-10T14:26:34;101133.63;;;9.59;100.00
21111;BME280;10713;51.912;4.494;2023-01-10T14:29:06;101148.63;;;9.57;100.00
21111;BME280;10713;51.912;4.494;2023-01-10T14:31:35;101147.75;;;9.56;100.00